Time;durP1;ratioP1;P1;durP2;ratioP2;P2;SDS_P1;SDS_P2;PMS_P1;PMS_P2;Temp;Humidity;BMP_temperature;BMP_pressure;BME280_temperature;BME280_humidity;BME280_pressure;Samples;Min_cycle;Max_cycle;Signal;HPM_P1;HPM_P2
2021/08/24 00:00:21;;;;;;;3.92;2.92;;;13.80;95.80;;;;;;5020362;28;20516;-78
2021/08/24 00:02:46;;;;;;;3.45;3.13;;;13.70;95.40;;;;;;5032255;28;20036;-77
2021/08/24 00:05:14;;;;;;;6.65;2.90;;;13.70;96.00;;;;;;5007861;28;20036;-78
2021/08/24 00:07:40;;;;;;;3.47;3.00;;;13.70;95.20;;;;;;5024457;28;20030;-78
2021/08/24 00:10:07;;;;;;;8.30;3.25;;;13.70;95.60;;;;;;5033823;28;20032;-78
2021/08/24 00:12:33;;;;;;;4.88;2.92;;;13.60;95.90;;;;;;5037215;28;20028;-78
2021/08/24 00:14:58;;;;;;;7.35;3.60;;;13.60;96.30;;;;;;5026850;28;20029;-77
2021/08/24 00:17:24;;;;;;;4.95;3.50;;;13.60;96.00;;;;;;5045712;28;20033;-78
2021/08/24 00:19:50;;;;;;;6.68;3.10;;;13.50;96.10;;;;;;5026932;28;20060;-78
2021/08/24 00:22:15;;;;;;;3.10;2.78;;;13.50;96.10;;;;;;5046275;28;20127;-78
2021/08/24 00:24:41;;;;;;;6.05;3.80;;;13.50;96.40;;;;;;5024311;28;20079;-78
2021/08/24 00:27:06;;;;;;;7.43;3.83;;;13.50;96.20;;;;;;5032444;28;20112;-77
2021/08/24 00:29:32;;;;;;;10.07;4.07;;;13.40;96.70;;;;;;5028708;28;20462;-78
2021/08/24 00:31:57;;;;;;;4.32;3.33;;;13.40;97.10;;;;;;5013896;28;20119;-77
2021/08/24 00:34:23;;;;;;;10.02;5.20;;;13.30;96.90;;;;;;5014776;28;20066;-78
2021/08/24 00:36:48;;;;;;;6.90;5.22;;;13.30;97.20;;;;;;5025687;28;20071;-79
2021/08/24 00:39:14;;;;;;;6.95;5.20;;;13.30;97.00;;;;;;5032875;28;20029;-78
2021/08/24 00:41:39;;;;;;;6.65;5.05;;;13.30;96.60;;;;;;4996025;28;20433;-78
2021/08/24 00:44:06;;;;;;;9.68;5.32;;;13.30;95.90;;;;;;5060781;28;20039;-78
2021/08/24 00:46:45;;;;;;;10.68;5.50;;;13.30;97.10;;;;;;5023844;28;20047;-78
2021/08/24 00:49:16;;;;;;;10.93;5.97;;;13.20;97.90;;;;;;5025739;28;20052;-78
2021/08/24 00:51:47;;;;;;;6.20;4.47;;;13.20;96.30;;;;;;5023572;28;20654;-78
2021/08/24 00:54:14;;;;;;;5.97;4.95;;;13.40;95.20;;;;;;5025168;28;20134;-78
2021/08/24 00:56:41;;;;;;;6.65;4.55;;;13.40;96.20;;;;;;5035536;28;20465;-78
2021/08/24 00:59:07;;;;;;;6.00;4.28;;;13.40;94.90;;;;;;5042365;28;20551;-78
2021/08/24 01:01:32;;;;;;;6.55;5.00;;;13.40;94.80;;;;;;5026569;28;20028;-78
2021/08/24 01:04:11;;;;;;;9.20;5.60;;;13.20;96.50;;;;;;5008752;28;20391;-78
2021/08/24 01:06:49;;;;;;;6.55;5.18;;;13.10;97.90;;;;;;4994644;28;20076;-78
2021/08/24 01:09:27;;;;;;;7.53;5.30;;;13.10;96.00;;;;;;5031468;28;20044;-79
2021/08/24 01:12:07;;;;;;;7.82;5.40;;;13.20;97.30;;;;;;5045510;28;20507;-78
2021/08/24 01:14:48;;;;;;;9.57;6.75;;;13.20;94.90;;;;;;5030998;28;20053;-78
2021/08/24 01:17:47;;;;;;;8.10;5.57;;;13.10;97.30;;;;;;5057909;28;20120;-78
2021/08/24 01:20:18;;;;;;;11.25;6.50;;;13.00;97.80;;;;;;5027284;28;20033;-79
2021/08/24 01:22:59;;;;;;;7.43;6.32;;;12.90;97.50;;;;;;5042973;28;20476;-79
2021/08/24 01:25:36;;;;;;;10.85;6.30;;;12.80;98.00;;;;;;5028996;28;20496;-77
2021/08/24 01:28:15;;;;;;;12.75;6.90;;;12.70;98.10;;;;;;5011960;28;20506;-78
2021/08/24 01:31:03;;;;;;;10.95;7.45;;;12.70;97.70;;;;;;5008780;28;20064;-78
2021/08/24 01:33:49;;;;;;;12.48;8.18;;;12.60;97.10;;;;;;5015130;28;20022;-77
2021/08/24 01:36:30;;;;;;;10.75;8.20;;;12.60;97.20;;;;;;5038829;28;20488;-77
2021/08/24 01:39:28;;;;;;;8.93;6.93;;;12.60;98.20;;;;;;5038722;28;20240;-77
2021/08/24 01:42:06;;;;;;;13.60;8.60;;;12.60;98.70;;;;;;5009740;28;20036;-78
2021/08/24 01:44:35;;;;;;;9.13;6.18;;;12.60;98.70;;;;;;5034681;28;20559;-78
2021/08/24 01:47:22;;;;;;;6.95;5.90;;;12.70;97.60;;;;;;5044062;28;20484;-79
2021/08/24 01:50:08;;;;;;;7.35;5.35;;;12.60;98.40;;;;;;5020674;28;20040;-78
2021/08/24 01:52:35;;;;;;;7.85;5.32;;;12.60;98.40;;;;;;5009460;28;20029;-77
2021/08/24 01:55:05;;;;;;;9.27;6.20;;;12.50;98.80;;;;;;5042099;28;20071;-78
2021/08/24 01:57:47;;;;;;;8.60;5.95;;;12.40;98.80;;;;;;5023345;28;20068;-77
2021/08/24 02:00:12;;;;;;;13.93;5.80;;;12.40;99.20;;;;;;5023257;28;20092;-78
2021/08/24 02:02:40;;;;;;;8.50;6.15;;;12.40;99.20;;;;;;5011872;28;20029;-77
2021/08/24 02:05:09;;;;;;;9.75;6.13;;;12.40;98.30;;;;;;5030092;28;22759;-78
2021/08/24 02:07:35;;;;;;;24.35;16.30;;;12.30;98.70;;;;;;5027994;28;20041;-78
2021/08/24 02:10:08;;;;;;;12.68;9.77;;;12.20;98.60;;;;;;5026148;28;20273;-79
2021/08/24 02:12:35;;;;;;;12.68;9.85;;;12.30;98.70;;;;;;5014166;28;20056;-77
2021/08/24 02:15:00;;;;;;;10.20;8.15;;;12.10;98.90;;;;;;5039904;28;20025;-78
2021/08/24 02:17:26;;;;;;;6.75;6.00;;;12.10;98.00;;;;;;5017148;28;20021;-77
2021/08/24 02:19:54;;;;;;;10.25;7.03;;;12.20;97.20;;;;;;5030801;28;20099;-78
2021/08/24 02:22:28;;;;;;;9.30;7.63;;;12.30;97.80;;;;;;5012283;28;20029;-78
2021/08/24 02:25:15;;;;;;;8.25;6.38;;;12.30;97.10;;;;;;5001884;28;20524;-77
2021/08/24 02:28:05;;;;;;;10.77;7.13;;;12.10;98.20;;;;;;5017601;28;20488;-78
2021/08/24 02:30:31;;;;;;;9.40;6.03;;;12.00;98.90;;;;;;5039552;28;20041;-77
2021/08/24 02:32:56;;;;;;;9.05;7.25;;;12.00;97.60;;;;;;5033391;28;20044;-77
2021/08/24 02:35:36;;;;;;;11.65;9.30;;;12.00;99.00;;;;;;5029561;28;20025;-77
2021/08/24 02:38:14;;;;;;;13.13;8.18;;;12.00;98.70;;;;;;5026137;28;20060;-77
2021/08/24 02:40:45;;;;;;;9.30;7.32;;;11.80;99.10;;;;;;5009857;28;20037;-76
2021/08/24 02:43:29;;;;;;;11.60;6.80;;;11.70;99.50;;;;;;5040370;28;20112;-77
2021/08/24 02:46:07;;;;;;;11.50;6.68;;;11.70;98.90;;;;;;5030593;28;20095;-77
2021/08/24 02:48:32;;;;;;;10.57;6.60;;;11.80;98.90;;;;;;5026444;28;20037;-76
2021/08/24 02:50:58;;;;;;;11.02;6.95;;;11.90;99.00;;;;;;4997525;28;20395;-77
2021/08/24 02:53:25;;;;;;;11.40;7.50;;;11.90;98.00;;;;;;5046876;28;20748;-78
2021/08/24 02:55:50;;;;;;;10.25;6.70;;;11.80;99.20;;;;;;5041445;28;20116;-77
2021/08/24 02:58:16;;;;;;;8.35;5.93;;;11.80;97.50;;;;;;4995736;28;20124;-77
2021/08/24 03:00:42;;;;;;;8.30;6.03;;;11.90;97.40;;;;;;5024168;28;20164;-77
2021/08/24 03:03:07;;;;;;;8.55;6.07;;;12.00;96.50;;;;;;5042827;28;20037;-77
2021/08/24 03:05:33;;;;;;;10.10;6.50;;;11.90;96.40;;;;;;5000833;28;20033;-76
2021/08/24 03:07:59;;;;;;;8.20;5.55;;;12.00;96.90;;;;;;5029469;28;20500;-76
2021/08/24 03:10:25;;;;;;;6.60;5.00;;;12.00;96.00;;;;;;5018925;28;20029;-77
2021/08/24 03:13:04;;;;;;;8.65;5.75;;;12.00;95.70;;;;;;5019894;28;20084;-76
2021/08/24 03:15:44;;;;;;;9.25;5.97;;;12.00;96.40;;;;;;5005292;28;20034;-77
2021/08/24 03:18:38;;;;;;;10.75;6.70;;;11.80;98.00;;;;;;5017178;28;20037;-77
2021/08/24 03:21:05;;;;;;;7.20;5.65;;;11.60;98.60;;;;;;5035480;28;20033;-76
2021/08/24 03:23:30;;;;;;;7.35;5.85;;;11.60;98.70;;;;;;5033999;28;20044;-77
2021/08/24 03:25:56;;;;;;;6.07;5.10;;;11.60;97.30;;;;;;5046540;28;20024;-77
2021/08/24 03:28:24;;;;;;;10.02;5.70;;;11.70;96.30;;;;;;5048258;28;20401;-77
2021/08/24 03:30:50;;;;;;;7.53;4.68;;;11.80;96.50;;;;;;5022605;28;20451;-77
2021/08/24 03:33:15;;;;;;;7.93;5.47;;;11.80;95.90;;;;;;4997752;28;20037;-77
2021/08/24 03:35:41;;;;;;;7.20;5.35;;;11.70;97.60;;;;;;5017490;28;20037;-77
2021/08/24 03:38:07;;;;;;;8.50;6.20;;;11.50;97.80;;;;;;5012773;28;20090;-77
2021/08/24 03:40:33;;;;;;;9.20;5.60;;;11.30;98.80;;;;;;5009922;28;20108;-77
2021/08/24 03:42:58;;;;;;;10.82;5.18;;;11.20;98.70;;;;;;5017782;28;20147;-77
2021/08/24 03:45:24;;;;;;;6.63;4.97;;;11.30;97.10;;;;;;5029074;28;20037;-77
2021/08/24 03:47:50;;;;;;;6.07;5.30;;;11.40;96.90;;;;;;5029724;28;20037;-77
2021/08/24 03:50:15;;;;;;;5.20;4.35;;;11.50;96.30;;;;;;5023627;28;20029;-77
2021/08/24 03:52:41;;;;;;;5.47;4.20;;;11.50;95.90;;;;;;5010732;28;20484;-77
2021/08/24 03:55:06;;;;;;;8.07;5.00;;;11.50;96.10;;;;;;5022922;28;20029;-77
2021/08/24 03:57:32;;;;;;;7.63;3.60;;;11.50;95.80;;;;;;5043969;28;20037;-78
2021/08/24 03:59:57;;;;;;;6.55;4.35;;;11.50;95.70;;;;;;4999023;28;20084;-77
2021/08/24 04:02:23;;;;;;;7.28;4.65;;;11.40;96.20;;;;;;5032345;28;20021;-77
2021/08/24 04:04:49;;;;;;;8.65;4.57;;;11.30;96.60;;;;;;5044937;28;20247;-77
2021/08/24 04:07:15;;;;;;;6.40;4.60;;;11.20;96.10;;;;;;5018102;28;20036;-77
2021/08/24 04:09:40;;;;;;;7.68;4.93;;;11.20;97.00;;;;;;5017763;28;20119;-77
2021/08/24 04:12:06;;;;;;;9.57;4.97;;;11.00;98.00;;;;;;4991723;28;20113;-77
2021/08/24 04:14:32;;;;;;;5.45;4.13;;;11.10;97.10;;;;;;5013555;28;20033;-76
2021/08/24 04:16:57;;;;;;;7.70;4.38;;;11.20;96.50;;;;;;5009305;28;20030;-77
2021/08/24 04:19:23;;;;;;;7.32;4.80;;;11.20;97.80;;;;;;5041617;28;20029;-76
2021/08/24 04:21:48;;;;;;;9.65;5.32;;;10.90;98.20;;;;;;5044367;28;20087;-77
2021/08/24 04:24:14;;;;;;;7.60;5.80;;;10.90;99.20;;;;;;5043404;28;20473;-76
2021/08/24 04:26:39;;;;;;;8.65;5.90;;;10.70;99.30;;;;;;4997370;28;20032;-77
2021/08/24 04:29:05;;;;;;;9.60;5.28;;;10.70;99.70;;;;;;5039314;28;20044;-78
2021/08/24 04:31:31;;;;;;;10.30;5.45;;;10.70;99.50;;;;;;5010533;28;20423;-76
2021/08/24 04:33:57;;;;;;;10.48;5.82;;;10.60;99.00;;;;;;5034814;28;20112;-77
2021/08/24 04:36:24;;;;;;;6.78;5.13;;;10.60;99.40;;;;;;5023387;28;20095;-76
2021/08/24 04:38:49;;;;;;;4.85;4.38;;;10.70;99.90;;;;;;5041504;28;20033;-76
2021/08/24 04:41:15;;;;;;;5.53;4.82;;;10.80;97.60;;;;;;5026126;28;20578;-77
2021/08/24 04:43:40;;;;;;;7.65;5.15;;;10.90;97.40;;;;;;5029296;28;20033;-77
2021/08/24 04:46:06;;;;;;;6.40;4.70;;;11.00;96.70;;;;;;5029272;28;20037;-77
2021/08/24 04:48:32;;;;;;;9.23;5.47;;;10.90;97.10;;;;;;5013264;28;20036;-77
2021/08/24 04:50:58;;;;;;;8.13;6.00;;;10.70;98.60;;;;;;5026227;28;20436;-78
2021/08/24 04:53:24;;;;;;;10.18;5.30;;;10.60;99.30;;;;;;5008202;28;20112;-77
2021/08/24 04:55:51;;;;;;;9.07;5.18;;;10.60;99.20;;;;;;5046118;28;20115;-77
2021/08/24 04:58:16;;;;;;;11.07;6.07;;;10.60;99.40;;;;;;5025537;28;20061;-77
2021/08/24 05:00:42;;;;;;;9.48;6.18;;;10.50;99.60;;;;;;5033010;28;20645;-76
2021/08/24 05:03:07;;;;;;;10.80;6.38;;;10.50;99.50;;;;;;5006186;28;20064;-77
2021/08/24 05:05:34;;;;;;;11.10;6.93;;;10.60;99.60;;;;;;5017841;28;20232;-77
2021/08/24 05:07:59;;;;;;;11.43;6.90;;;10.50;99.90;;;;;;5027846;28;20091;-77
2021/08/24 05:10:25;;;;;;;8.07;6.35;;;10.60;99.90;;;;;;5010219;28;20029;-77
2021/08/24 05:12:50;;;;;;;9.55;7.80;;;10.60;99.80;;;;;;4994193;28;20316;-77
2021/08/24 05:15:16;;;;;;;9.35;7.60;;;10.60;99.40;;;;;;5025638;28;20489;-77
2021/08/24 05:17:42;;;;;;;9.70;8.23;;;10.60;99.10;;;;;;5002916;28;20452;-77
2021/08/24 05:20:08;;;;;;;11.25;8.40;;;10.60;99.70;;;;;;5043067;28;20061;-78
2021/08/24 05:22:33;;;;;;;12.80;8.60;;;10.70;99.90;;;;;;5037680;28;20128;-79
2021/08/24 05:24:59;;;;;;;14.25;9.35;;;10.70;99.90;;;;;;5021288;28;20113;-76
2021/08/24 05:27:24;;;;;;;14.43;8.65;;;10.80;99.90;;;;;;5023132;28;20030;-78
2021/08/24 05:29:50;;;;;;;14.75;8.95;;;10.90;98.60;;;;;;5045448;28;20083;-77
2021/08/24 05:32:15;;;;;;;8.60;6.68;;;11.10;97.50;;;;;;5003300;28;20025;-77
2021/08/24 05:34:41;;;;;;;14.20;9.20;;;11.10;97.20;;;;;;5025446;28;20520;-76
2021/08/24 05:37:07;;;;;;;11.90;8.18;;;11.10;97.50;;;;;;5041703;28;20040;-76
2021/08/24 05:39:33;;;;;;;8.75;6.63;;;11.20;97.50;;;;;;5028101;28;20029;-77
2021/08/24 05:42:00;;;;;;;11.82;6.68;;;11.40;97.10;;;;;;5032074;28;20025;-77
2021/08/24 05:44:25;;;;;;;18.75;8.43;;;11.50;96.70;;;;;;5003891;28;20045;-76
2021/08/24 05:46:51;;;;;;;12.48;9.05;;;11.50;98.20;;;;;;5011446;28;20036;-77
2021/08/24 05:49:16;;;;;;;13.05;9.40;;;11.60;98.50;;;;;;5014716;28;20060;-76
2021/08/24 05:51:42;;;;;;;14.50;10.30;;;11.80;99.90;;;;;;5010820;28;20053;-77
2021/08/24 05:54:07;;;;;;;18.98;12.40;;;11.90;99.60;;;;;;5024055;28;20133;-77
2021/08/24 05:56:33;;;;;;;21.30;12.88;;;11.90;98.90;;;;;;5030803;28;20043;-77
2021/08/24 05:58:58;;;;;;;18.02;11.80;;;12.00;97.90;;;;;;5058949;28;20540;-77
2021/08/24 06:01:25;;;;;;;25.95;14.25;;;12.10;98.30;;;;;;5028812;28;20030;-78
2021/08/24 06:03:51;;;;;;;33.75;18.05;;;12.20;97.60;;;;;;5031746;28;20037;-77
2021/08/24 06:06:18;;;;;;;25.02;15.50;;;12.40;99.40;;;;;;5025716;28;20032;-77
2021/08/24 06:08:44;;;;;;;17.67;11.75;;;12.40;98.00;;;;;;5049081;28;20049;-77
2021/08/24 06:11:25;;;;;;;37.55;21.65;;;12.50;98.30;;;;;;5009018;28;20056;-77
2021/08/24 06:13:50;;;;;;;42.70;22.55;;;12.60;97.90;;;;;;5041294;28;20048;-78
2021/08/24 06:16:16;;;;;;;44.92;27.13;;;12.70;99.00;;;;;;4996893;28;20468;-77
2021/08/24 06:18:42;;;;;;;28.20;18.98;;;12.70;98.50;;;;;;5021853;28;20030;-77
2021/08/24 06:21:07;;;;;;;39.33;23.92;;;12.90;99.00;;;;;;5029828;28;20493;-78
2021/08/24 06:23:33;;;;;;;44.97;24.65;;;13.00;98.80;;;;;;5019978;28;20037;-78
2021/08/24 06:25:59;;;;;;;39.22;22.83;;;13.00;98.80;;;;;;5010817;28;20036;-76
2021/08/24 06:28:25;;;;;;;30.35;21.80;;;13.10;99.70;;;;;;5026721;28;20033;-78
2021/08/24 06:30:51;;;;;;;28.55;20.75;;;13.20;99.40;;;;;;5031477;28;20398;-77
2021/08/24 06:33:16;;;;;;;31.25;19.42;;;13.30;99.40;;;;;;5038359;28;20072;-77
2021/08/24 06:35:42;;;;;;;31.27;18.48;;;13.40;99.10;;;;;;5002786;28;20041;-77
2021/08/24 06:38:07;;;;;;;32.92;18.45;;;13.60;99.80;;;;;;5023792;28;20502;-76
2021/08/24 06:40:33;;;;;;;35.88;20.38;;;13.70;99.30;;;;;;5007021;28;20032;-77
2021/08/24 06:42:59;;;;;;;33.08;18.33;;;13.80;98.90;;;;;;5030006;28;20223;-78
2021/08/24 06:45:27;;;;;;;33.65;19.35;;;13.90;99.30;;;;;;5012262;28;20029;-77
2021/08/24 06:47:53;;;;;;;34.97;18.70;;;14.10;99.10;;;;;;5019835;28;20113;-77
2021/08/24 06:50:19;;;;;;;26.15;13.48;;;14.30;99.00;;;;;;5052526;28;20112;-77
2021/08/24 06:52:45;;;;;;;36.45;19.30;;;14.40;98.10;;;;;;5042878;28;20025;-76
2021/08/24 06:55:12;;;;;;;36.17;18.15;;;14.40;98.50;;;;;;4988053;28;20042;-77
2021/08/24 06:57:37;;;;;;;26.23;13.15;;;14.60;98.80;;;;;;5036291;28;20033;-76
2021/08/24 07:00:05;;;;;;;39.97;18.13;;;14.70;98.00;;;;;;5025853;28;20052;-77
2021/08/24 07:02:30;;;;;;;32.67;15.18;;;14.80;98.60;;;;;;4994105;28;20040;-77
2021/08/24 07:04:56;;;;;;;31.58;16.52;;;14.90;98.20;;;;;;5023633;28;20033;-78
2021/08/24 07:07:23;;;;;;;24.38;14.00;;;15.10;98.60;;;;;;5049576;28;20037;-76
2021/08/24 07:09:49;;;;;;;25.55;14.30;;;15.20;98.30;;;;;;5025414;28;20508;-76
2021/08/24 07:12:15;;;;;;;23.45;13.13;;;15.20;98.50;;;;;;5038166;28;20059;-77
2021/08/24 07:14:40;;;;;;;18.95;12.27;;;15.30;98.60;;;;;;5036539;28;20453;-77
2021/08/24 07:17:06;;;;;;;25.40;13.57;;;15.50;98.60;;;;;;5029033;28;20035;-78
2021/08/24 07:19:32;;;;;;;26.38;13.85;;;15.60;98.30;;;;;;5024187;28;20092;-77
2021/08/24 07:21:57;;;;;;;19.75;11.82;;;15.70;98.40;;;;;;5009014;28;20120;-80
2021/08/24 07:24:23;;;;;;;23.75;10.93;;;15.80;98.20;;;;;;5036248;28;20397;-79
2021/08/24 07:26:49;;;;;;;17.77;11.25;;;15.90;97.70;;;;;;4990814;28;20080;-76
2021/08/24 07:29:14;;;;;;;15.77;8.98;;;16.00;97.60;;;;;;5018644;28;20033;-76
2021/08/24 07:31:40;;;;;;;15.57;8.95;;;16.30;97.00;;;;;;4966790;28;1226231;-76
2021/08/24 07:34:08;;;;;;;9.25;6.65;;;16.40;97.80;;;;;;5014161;28;20056;-77
2021/08/24 07:36:34;;;;;;;10.30;5.93;;;16.50;97.60;;;;;;5008169;28;20321;-78
2021/08/24 07:39:01;;;;;;;9.93;6.53;;;16.60;98.10;;;;;;5031319;28;20036;-77
2021/08/24 07:41:26;;;;;;;10.50;5.88;;;16.70;98.50;;;;;;5010271;28;20036;-76
2021/08/24 07:43:52;;;;;;;5.60;4.40;;;16.80;97.90;;;;;;5021288;28;20397;-76
2021/08/24 07:46:17;;;;;;;6.47;4.50;;;16.90;97.90;;;;;;5024671;28;20026;-77
2021/08/24 07:48:43;;;;;;;6.15;4.55;;;17.00;97.80;;;;;;5027229;28;20112;-77
2021/08/24 07:51:09;;;;;;;6.45;3.72;;;17.10;96.70;;;;;;5011824;28;20036;-77
2021/08/24 07:53:34;;;;;;;4.75;3.75;;;17.30;96.10;;;;;;5009712;28;20500;-78
2021/08/24 07:56:02;;;;;;;5.97;4.07;;;17.40;96.60;;;;;;5000228;28;20041;-78
2021/08/24 07:58:27;;;;;;;6.72;3.10;;;17.50;97.20;;;;;;5022158;28;20034;-77
2021/08/24 08:00:53;;;;;;;6.70;3.42;;;17.50;96.20;;;;;;5006165;28;20434;-76
2021/08/24 08:03:20;;;;;;;7.15;3.40;;;17.70;96.10;;;;;;5026861;28;20059;-76
2021/08/24 08:05:46;;;;;;;5.78;2.92;;;17.90;95.80;;;;;;5040577;28;20188;-76
2021/08/24 08:08:11;;;;;;;7.88;3.58;;;18.00;95.40;;;;;;5026853;28;20489;-76
2021/08/24 08:10:37;;;;;;;5.65;2.80;;;18.00;95.40;;;;;;5041467;28;20029;-76
2021/08/24 08:13:03;;;;;;;8.45;3.13;;;18.00;95.60;;;;;;5040201;28;20124;-77
2021/08/24 08:15:32;;;;;;;2.72;2.10;;;18.20;95.50;;;;;;4992868;28;20689;-78
2021/08/24 08:17:59;;;;;;;4.65;2.10;;;18.30;94.80;;;;;;5034071;28;20046;-78
2021/08/24 08:20:25;;;;;;;4.35;2.33;;;18.40;95.00;;;;;;5019522;28;20033;-79
2021/08/24 08:22:50;;;;;;;5.60;2.60;;;18.50;94.40;;;;;;5041322;28;20056;-77
2021/08/24 08:25:16;;;;;;;6.85;2.95;;;18.60;94.20;;;;;;5006714;28;20533;-77
2021/08/24 08:27:41;;;;;;;4.40;2.38;;;18.80;92.50;;;;;;5024889;28;20477;-77
2021/08/24 08:30:08;;;;;;;4.13;2.30;;;18.80;94.40;;;;;;5013407;28;20045;-79
2021/08/24 08:32:34;;;;;;;8.00;2.45;;;19.00;94.50;;;;;;5025841;28;20028;-78
2021/08/24 08:34:59;;;;;;;5.85;2.70;;;19.00;92.10;;;;;;5024685;28;20038;-78
2021/08/24 08:37:25;;;;;;;3.80;2.20;;;19.10;92.40;;;;;;5021980;28;20112;-78
2021/08/24 08:39:50;;;;;;;5.03;1.95;;;19.20;93.30;;;;;;5024554;28;20489;-77
2021/08/24 08:42:39;;;;;;;4.47;2.22;;;19.30;93.00;;;;;;4989707;28;20473;-77
2021/08/24 08:45:17;;;;;;;3.25;1.88;;;19.30;92.10;;;;;;5027162;28;20056;-77
2021/08/24 08:48:12;;;;;;;4.40;2.13;;;19.40;92.20;;;;;;5021719;28;20029;-77
2021/08/24 08:50:46;;;;;;;3.88;2.00;;;19.40;90.90;;;;;;5028477;28;20079;-78
2021/08/24 08:53:23;;;;;;;3.75;2.00;;;19.60;91.90;;;;;;5038135;28;20041;-78
2021/08/24 08:56:11;;;;;;;2.88;1.95;;;19.60;91.80;;;;;;5041660;28;20025;-77
2021/08/24 08:58:58;;;;;;;5.10;2.00;;;19.90;90.40;;;;;;5022368;28;20373;-78
2021/08/24 09:01:43;;;;;;;6.43;2.40;;;19.90;90.20;;;;;;5025625;28;20030;-77
2021/08/24 09:04:31;;;;;;;4.22;2.05;;;19.90;90.80;;;;;;4991812;28;20041;-78
2021/08/24 09:06:58;;;;;;;5.20;2.10;;;20.00;90.20;;;;;;5014914;28;20033;-78
2021/08/24 09:09:24;;;;;;;3.63;2.30;;;20.10;90.10;;;;;;5019123;28;20033;-78
2021/08/24 09:11:50;;;;;;;4.82;2.08;;;20.20;89.10;;;;;;4994668;28;20489;-78
2021/08/24 09:14:38;;;;;;;6.82;2.35;;;20.30;90.40;;;;;;5024876;28;20095;-78
2021/08/24 09:17:09;;;;;;;3.30;1.63;;;20.30;87.40;;;;;;5022457;28;20058;-78
2021/08/24 09:19:41;;;;;;;4.25;2.30;;;20.40;85.60;;;;;;5029575;28;20437;-78
2021/08/24 09:22:07;;;;;;;5.05;2.30;;;20.60;81.10;;;;;;5022636;28;20025;-79
2021/08/24 09:24:33;;;;;;;5.35;1.90;;;20.60;83.10;;;;;;5010766;28;20489;-78
2021/08/24 09:27:03;;;;;;;6.05;3.08;;;20.60;86.40;;;;;;5023844;28;20044;-79
2021/08/24 09:29:40;;;;;;;6.07;2.75;;;20.80;82.90;;;;;;5024088;28;20037;-79
2021/08/24 09:32:07;;;;;;;5.20;2.80;;;20.70;82.10;;;;;;4996512;28;20048;-79
2021/08/24 09:34:34;;;;;;;3.72;2.33;;;20.90;81.20;;;;;;5027154;28;20060;-78
2021/08/24 09:37:00;;;;;;;4.95;2.78;;;20.80;81.30;;;;;;5038448;28;20038;-79
2021/08/24 09:39:52;;;;;;;5.55;2.50;;;20.90;80.90;;;;;;5029091;28;20100;-80
2021/08/24 09:42:39;;;;;;;8.55;3.72;;;21.00;83.70;;;;;;5012278;28;20492;-78
2021/08/24 09:45:26;;;;;;;8.70;3.70;;;21.00;82.40;;;;;;5035623;28;20029;-79
2021/08/24 09:47:57;;;;;;;6.65;3.63;;;21.20;80.10;;;;;;5003301;28;20100;-79
2021/08/24 09:50:28;;;;;;;6.07;3.25;;;21.20;80.50;;;;;;5029009;28;20113;-80
2021/08/24 09:52:53;;;;;;;13.50;3.50;;;21.20;79.30;;;;;;5014772;28;20168;-79
2021/08/24 09:55:27;;;;;;;8.15;3.63;;;21.40;80.60;;;;;;4981984;28;20105;-80
2021/08/24 09:58:20;;;;;;;5.63;3.28;;;21.50;79.70;;;;;;4999748;28;20085;-80
2021/08/24 10:01:15;;;;;;;6.97;3.80;;;22.00;84.20;;;;;;5027470;28;20040;-80
2021/08/24 10:03:45;;;;;;;9.20;3.92;;;21.80;76.70;;;;;;5014216;28;20099;-80
2021/08/24 10:06:23;;;;;;;6.88;3.42;;;21.80;78.40;;;;;;5038309;28;20041;-79
2021/08/24 10:08:54;;;;;;;8.40;3.80;;;21.80;78.40;;;;;;5025651;28;20033;-80
2021/08/24 10:11:28;;;;;;;6.28;3.30;;;21.80;75.10;;;;;;5009618;28;20404;-79
2021/08/24 10:13:58;;;;;;;5.47;3.25;;;21.90;77.60;;;;;;5025194;28;20037;-80
2021/08/24 10:16:26;;;;;;;6.68;2.97;;;22.10;74.60;;;;;;5022893;28;20033;-79
2021/08/24 10:19:12;;;;;;;5.40;2.85;;;22.10;75.80;;;;;;5029810;28;20036;-79
2021/08/24 10:22:02;;;;;;;8.88;3.90;;;22.20;75.90;;;;;;5021139;28;20037;-80
2021/08/24 10:24:38;;;;;;;6.28;3.17;;;22.40;77.60;;;;;;4990057;28;20034;-81
2021/08/24 10:27:05;;;;;;;5.22;2.17;;;22.40;75.00;;;;;;5004587;28;20091;-81
2021/08/24 10:29:34;;;;;;;3.90;2.42;;;22.50;76.30;;;;;;5017899;28;20274;-81
2021/08/24 10:32:04;;;;;;;4.50;2.70;;;22.50;74.60;;;;;;5012516;28;20441;-81
2021/08/24 10:34:31;;;;;;;4.35;2.95;;;22.60;75.20;;;;;;5042560;28;20036;-83
2021/08/24 10:37:24;;;;;;;6.78;3.13;;;22.60;75.60;;;;;;5042998;28;20037;-82
2021/08/24 10:39:52;;;;;;;6.05;2.95;;;22.60;71.60;;;;;;5054550;28;20020;-82
2021/08/24 10:42:20;;;;;;;5.35;2.95;;;22.70;68.50;;;;;;5046088;28;20037;-82
2021/08/24 10:44:49;;;;;;;6.32;2.88;;;22.80;71.50;;;;;;5012778;28;20087;-83
2021/08/24 10:47:28;;;;;;;7.03;2.65;;;22.80;70.30;;;;;;5012945;28;20069;-83
2021/08/24 10:49:58;;;;;;;6.20;3.40;;;22.80;71.40;;;;;;5037614;28;20036;-82
2021/08/24 10:52:40;;;;;;;5.00;3.05;;;22.80;69.10;;;;;;5058559;28;20544;-82
2021/08/24 10:55:14;;;;;;;4.97;2.58;;;22.80;68.70;;;;;;5042494;28;20554;-83
2021/08/24 10:58:00;;;;;;;3.15;2.55;;;22.80;70.70;;;;;;5028879;28;20029;-83
2021/08/24 11:00:52;;;;;;;4.60;3.40;;;23.00;69.60;;;;;;5013276;28;20030;-83
2021/08/24 11:03:25;;;;;;;5.03;2.80;;;22.90;67.80;;;;;;5054529;28;20040;-83
2021/08/24 11:06:11;;;;;;;5.07;2.35;;;23.00;67.90;;;;;;5009218;28;20033;-83
2021/08/24 11:08:36;;;;;;;7.68;3.05;;;22.90;69.00;;;;;;4994232;28;20092;-82
2021/08/24 11:11:25;;;;;;;3.72;2.55;;;23.00;68.40;;;;;;5026806;28;20037;-83
2021/08/24 11:14:02;;;;;;;2.40;1.75;;;23.00;68.30;;;;;;5042424;28;20029;-81
2021/08/24 11:16:42;;;;;;;4.22;2.17;;;23.00;67.70;;;;;;5039046;28;20048;-82
2021/08/24 11:19:30;;;;;;;4.68;2.28;;;23.10;69.70;;;;;;4691145;28;10000063;-82
2021/08/24 11:22:18;;;;;;;3.55;2.15;;;23.10;68.30;;;;;;5039314;28;20411;-83
2021/08/24 11:24:43;;;;;;;3.78;2.13;;;23.20;68.80;;;;;;5020300;28;20488;-82
2021/08/24 11:27:21;;;;;;;4.30;1.90;;;23.30;68.50;;;;;;5039891;28;20040;-81
2021/08/24 11:29:49;;;;;;;4.78;2.30;;;23.40;70.60;;;;;;5024066;28;20068;-81
2021/08/24 11:32:27;;;;;;;6.72;2.08;;;23.40;67.80;;;;;;4992600;28;20049;-81
2021/08/24 11:34:59;;;;;;;3.92;2.33;;;23.40;69.20;;;;;;5024073;28;20033;-81
2021/08/24 11:37:37;;;;;;;5.47;2.17;;;23.50;68.50;;;;;;5040396;28;20344;-82
2021/08/24 11:40:34;;;;;;;6.55;2.75;;;23.60;68.20;;;;;;5022566;28;20394;-81
2021/08/24 11:43:00;;;;;;;5.00;2.83;;;23.70;67.90;;;;;;5027081;28;20152;-80
2021/08/24 11:45:37;;;;;;;3.92;2.20;;;23.60;65.70;;;;;;5011786;28;22542;-81
2021/08/24 11:48:19;;;;;;;3.30;2.05;;;23.50;66.80;;;;;;5043444;28;20132;-81
2021/08/24 11:50:54;;;;;;;6.38;2.55;;;23.70;69.80;;;;;;5033465;28;20093;-81
2021/08/24 11:53:30;;;;;;;5.50;2.63;;;23.80;65.10;;;;;;5046097;28;20373;-80
2021/08/24 11:55:56;;;;;;;;;;;23.80;65.10;;;;;;5010063;28;20045;-80
2021/08/24 11:58:35;;;;;;;2.88;2.00;;;23.90;66.60;;;;;;5028734;28;19967;-82
2021/08/24 12:01:04;;;;;;;5.18;1.90;;;23.80;67.40;;;;;;5024503;28;20350;-80
2021/08/24 12:03:30;;;;;;;5.05;2.17;;;23.90;68.00;;;;;;5025956;28;20076;-79
2021/08/24 12:06:28;;;;;;;2.67;1.80;;;24.10;66.00;;;;;;4990297;28;20060;-80
2021/08/24 12:08:56;;;;;;;3.85;1.90;;;24.20;69.30;;;;;;5007119;28;20119;-81
2021/08/24 12:11:23;;;;;;;4.22;2.53;;;24.20;65.80;;;;;;4991317;28;20590;-80
2021/08/24 12:13:50;;;;;;;3.63;2.05;;;24.50;66.80;;;;;;5017402;28;20029;-80
2021/08/24 12:16:23;;;;;;;3.58;2.00;;;24.30;64.00;;;;;;5016886;28;20512;-79
2021/08/24 12:18:52;;;;;;;6.47;2.30;;;24.40;65.70;;;;;;5037474;28;20049;-79
2021/08/24 12:21:45;;;;;;;4.20;2.00;;;24.30;63.60;;;;;;5001186;28;20030;-80
2021/08/24 12:24:23;;;;;;;3.25;1.98;;;24.50;65.60;;;;;;5038333;28;20033;-80
2021/08/24 12:27:09;;;;;;;3.42;1.65;;;24.70;65.40;;;;;;5037993;28;20075;-80
2021/08/24 12:29:35;;;;;;;4.53;2.38;;;24.80;67.50;;;;;;5030180;28;20065;-80
2021/08/24 12:32:11;;;;;;;3.80;2.17;;;24.90;66.90;;;;;;5035160;28;20468;-79
2021/08/24 12:34:38;;;;;;;3.65;2.42;;;25.00;67.10;;;;;;5031208;28;20416;-79
2021/08/24 12:37:05;;;;;;;3.88;1.77;;;25.30;65.30;;;;;;5042019;28;21550;-80
2021/08/24 12:39:42;;;;;;;3.17;1.90;;;25.30;65.70;;;;;;5026861;28;20037;-79
2021/08/24 12:42:31;;;;;;;5.90;2.10;;;25.70;67.50;;;;;;5032789;28;20033;-79
2021/08/24 12:45:02;;;;;;;4.75;2.22;;;25.80;65.30;;;;;;5013704;28;20120;-79
2021/08/24 12:47:31;;;;;;;5.45;2.40;;;25.80;63.20;;;;;;5038867;28;20033;-80
2021/08/24 12:50:08;;;;;;;3.42;2.08;;;25.90;64.40;;;;;;5042265;28;20036;-79
2021/08/24 12:52:39;;;;;;;5.45;1.90;;;26.00;62.90;;;;;;5054022;28;20036;-79
2021/08/24 12:55:24;;;;;;;4.43;2.33;;;26.10;65.20;;;;;;5037229;28;20038;-79
2021/08/24 12:57:49;;;;;;;3.00;1.92;;;26.20;63.30;;;;;;5037397;28;20037;-79
2021/08/24 13:00:33;;;;;;;2.80;1.70;;;26.30;63.80;;;;;;5005827;28;20033;-79